sensor_id;sensor_type;location;lat;lon;timestamp;pressure;altitude;pressure_sealevel;temperature;humidity
48386;BME280;34644;47.964;7.982;2023-02-28T00:00:23;96957.78;;;14.32;50.97
48386;BME280;34644;47.964;7.982;2023-02-28T00:07:24;96968.63;;;14.30;50.99
48386;BME280;34644;47.964;7.982;2023-02-28T00:14:24;96965.19;;;14.29;51.13
48386;BME280;34644;47.964;7.982;2023-02-28T00:21:24;96966.22;;;14.28;50.95
48386;BME280;34644;47.964;7.982;2023-02-28T00:28:25;96964.94;;;14.31;51.05
48386;BME280;34644;47.964;7.982;2023-02-28T00:35:25;96963.88;;;14.32;51.24
48386;BME280;34644;47.964;7.982;2023-02-28T00:42:26;96964.66;;;14.33;51.29
48386;BME280;34644;47.964;7.982;2023-02-28T00:49:27;96960.19;;;14.33;51.37
48386;BME280;34644;47.964;7.982;2023-02-28T00:56:27;96967.06;;;14.34;51.24
48386;BME280;34644;47.964;7.982;2023-02-28T01:03:28;96973.19;;;14.35;51.39
48386;BME280;34644;47.964;7.982;2023-02-28T01:10:28;96957.53;;;14.33;51.53
48386;BME280;34644;47.964;7.982;2023-02-28T01:17:31;96949.56;;;14.33;51.50
48386;BME280;34644;47.964;7.982;2023-02-28T01:24:34;96946.09;;;14.33;51.64
48386;BME280;34644;47.964;7.982;2023-02-28T01:31:34;96947.16;;;14.32;51.44
48386;BME280;34644;47.964;7.982;2023-02-28T01:38:35;96951.94;;;14.29;51.55
48386;BME280;34644;47.964;7.982;2023-02-28T01:45:35;96950.31;;;14.28;51.84
48386;BME280;34644;47.964;7.982;2023-02-28T01:52:36;96938.97;;;14.33;51.60
48386;BME280;34644;47.964;7.982;2023-02-28T01:59:38;96937.34;;;14.32;51.88
48386;BME280;34644;47.964;7.982;2023-02-28T02:06:45;96924.63;;;14.34;51.80
48386;BME280;34644;47.964;7.982;2023-02-28T02:35:26;96907.94;;;14.34;51.85
48386;BME280;34644;47.964;7.982;2023-02-28T02:42:40;96912.19;;;14.35;51.88
48386;BME280;34644;47.964;7.982;2023-02-28T02:49:48;96909.56;;;14.35;51.95
48386;BME280;34644;47.964;7.982;2023-02-28T02:56:50;96915.09;;;14.33;52.21
48386;BME280;34644;47.964;7.982;2023-02-28T03:03:51;96907.16;;;14.33;51.94
48386;BME280;34644;47.964;7.982;2023-02-28T03:10:56;96912.44;;;14.33;52.06
48386;BME280;34644;47.964;7.982;2023-02-28T03:25:29;96906.91;;;14.35;52.24
48386;BME280;34644;47.964;7.982;2023-02-28T03:32:29;96919.91;;;14.36;52.10
48386;BME280;34644;47.964;7.982;2023-02-28T03:46:35;96916.44;;;14.36;52.20
48386;BME280;34644;47.964;7.982;2023-02-28T03:53:38;96916.44;;;14.36;52.46
48386;BME280;34644;47.964;7.982;2023-02-28T04:00:43;96923.59;;;14.35;52.30
48386;BME280;34644;47.964;7.982;2023-02-28T04:07:45;96908.72;;;14.34;52.43
48386;BME280;34644;47.964;7.982;2023-02-28T04:14:45;96922.00;;;14.34;52.25
48386;BME280;34644;47.964;7.982;2023-02-28T04:21:46;96927.53;;;14.33;52.35
48386;BME280;34644;47.964;7.982;2023-02-28T04:28:47;96923.56;;;14.30;52.38
48386;BME280;34644;47.964;7.982;2023-02-28T04:35:47;96925.16;;;14.31;52.56
48386;BME280;34644;47.964;7.982;2023-02-28T04:42:47;96920.44;;;14.38;52.38
48386;BME280;34644;47.964;7.982;2023-02-28T04:49:48;96928.13;;;14.62;51.91
48386;BME280;34644;47.964;7.982;2023-02-28T04:56:48;96927.16;;;14.73;51.79
48386;BME280;34644;47.964;7.982;2023-02-28T05:03:50;96938.97;;;14.88;51.32
48386;BME280;34644;47.964;7.982;2023-02-28T05:10:50;96941.47;;;14.99;51.54
48386;BME280;34644;47.964;7.982;2023-02-28T05:17:51;96948.84;;;14.97;51.36
48386;BME280;34644;47.964;7.982;2023-02-28T05:24:51;96950.44;;;14.93;51.19
48386;BME280;34644;47.964;7.982;2023-02-28T05:31:51;96949.91;;;14.91;51.36
48386;BME280;34644;47.964;7.982;2023-02-28T05:38:51;96950.69;;;14.92;51.26
48386;BME280;34644;47.964;7.982;2023-02-28T05:45:52;96950.00;;;11.52;40.61
48386;BME280;34644;47.964;7.982;2023-02-28T05:52:52;96959.22;;;9.49;41.71
48386;BME280;34644;47.964;7.982;2023-02-28T05:59:53;96964.63;;;11.00;41.01
48386;BME280;34644;47.964;7.982;2023-02-28T06:06:53;96964.09;;;12.96;41.79
48386;BME280;34644;47.964;7.982;2023-02-28T06:13:54;96967.59;;;13.87;42.88
48386;BME280;34644;47.964;7.982;2023-02-28T06:20:55;96963.88;;;14.32;43.42
48386;BME280;34644;47.964;7.982;2023-02-28T06:27:55;96964.56;;;14.50;44.09
48386;BME280;34644;47.964;7.982;2023-02-28T06:34:56;96968.53;;;14.69;44.48
48386;BME280;34644;47.964;7.982;2023-02-28T06:41:58;96978.81;;;14.65;45.29
48386;BME280;34644;47.964;7.982;2023-02-28T06:48:58;96983.59;;;14.63;45.73
48386;BME280;34644;47.964;7.982;2023-02-28T06:55:58;96986.41;;;14.57;46.31
48386;BME280;34644;47.964;7.982;2023-02-28T07:02:59;96987.91;;;14.47;46.67
48386;BME280;34644;47.964;7.982;2023-02-28T07:09:59;97001.50;;;14.56;47.00
48386;BME280;34644;47.964;7.982;2023-02-28T07:17:00;97014.28;;;14.59;46.97
48386;BME280;34644;47.964;7.982;2023-02-28T07:24:00;97006.00;;;15.05;46.79
48386;BME280;34644;47.964;7.982;2023-02-28T07:31:04;97005.75;;;15.07;46.70
48386;BME280;34644;47.964;7.982;2023-02-28T07:38:05;97004.09;;;15.00;47.05
48386;BME280;34644;47.964;7.982;2023-02-28T07:45:07;97009.38;;;14.95;47.44
48386;BME280;34644;47.964;7.982;2023-02-28T07:52:08;97009.81;;;14.87;47.82
48386;BME280;34644;47.964;7.982;2023-02-28T07:59:08;97015.38;;;14.86;47.62
48386;BME280;34644;47.964;7.982;2023-02-28T08:06:14;97014.00;;;14.83;47.83
48386;BME280;34644;47.964;7.982;2023-02-28T08:13:15;97009.47;;;14.78;48.11
48386;BME280;34644;47.964;7.982;2023-02-28T08:20:15;97017.66;;;14.77;48.54
48386;BME280;34644;47.964;7.982;2023-02-28T08:27:15;97018.19;;;14.74;48.59
48386;BME280;34644;47.964;7.982;2023-02-28T08:34:16;97029.59;;;14.74;48.68
48386;BME280;34644;47.964;7.982;2023-02-28T08:41:16;97037.00;;;14.72;48.89
48386;BME280;34644;47.964;7.982;2023-02-28T08:48:16;97046.00;;;14.71;49.07
48386;BME280;34644;47.964;7.982;2023-02-28T08:55:16;97053.44;;;14.69;49.02
48386;BME280;34644;47.964;7.982;2023-02-28T09:02:17;97056.56;;;14.66;49.12
48386;BME280;34644;47.964;7.982;2023-02-28T09:09:17;97056.56;;;14.66;49.20
48386;BME280;34644;47.964;7.982;2023-02-28T09:16:18;97057.63;;;14.65;49.42
48386;BME280;34644;47.964;7.982;2023-02-28T09:23:19;97063.16;;;14.63;49.51
48386;BME280;34644;47.964;7.982;2023-02-28T09:30:19;97060.50;;;14.63;49.29
48386;BME280;34644;47.964;7.982;2023-02-28T09:37:20;97072.16;;;14.62;49.37
48386;BME280;34644;47.964;7.982;2023-02-28T09:44:36;97080.59;;;14.59;49.78
48386;BME280;34644;47.964;7.982;2023-02-28T09:51:58;97080.03;;;14.57;49.76
48386;BME280;34644;47.964;7.982;2023-02-28T09:59:04;97085.03;;;14.54;49.93
48386;BME280;34644;47.964;7.982;2023-02-28T10:06:20;97079.19;;;14.52;50.00
48386;BME280;34644;47.964;7.982;2023-02-28T10:20:24;97078.88;;;14.48;50.01
48386;BME280;34644;47.964;7.982;2023-02-28T10:27:30;97075.91;;;14.44;50.26
48386;BME280;34644;47.964;7.982;2023-02-28T10:34:31;97082.25;;;14.43;50.11
48386;BME280;34644;47.964;7.982;2023-02-28T10:41:32;97092.06;;;14.43;50.30
48386;BME280;34644;47.964;7.982;2023-02-28T10:48:39;97101.06;;;14.42;50.36
48386;BME280;34644;47.964;7.982;2023-02-28T10:55:40;97103.16;;;14.40;50.30
48386;BME280;34644;47.964;7.982;2023-02-28T11:02:41;97099.72;;;14.39;50.22
48386;BME280;34644;47.964;7.982;2023-02-28T11:09:54;97100.75;;;14.38;50.26
48386;BME280;34644;47.964;7.982;2023-02-28T11:16:54;97095.69;;;14.37;50.43
48386;BME280;34644;47.964;7.982;2023-02-28T11:31:18;97097.72;;;14.69;49.62
48386;BME280;34644;47.964;7.982;2023-02-28T11:38:19;97103.72;;;15.08;49.05
48386;BME280;34644;47.964;7.982;2023-02-28T11:45:28;97090.63;;;15.29;48.37
48386;BME280;34644;47.964;7.982;2023-02-28T12:28:12;97080.69;;;15.46;47.79
48386;BME280;34644;47.964;7.982;2023-02-28T12:35:18;97085.06;;;15.58;47.69
48386;BME280;34644;47.964;7.982;2023-02-28T12:42:26;97076.75;;;15.49;48.10
48386;BME280;34644;47.964;7.982;2023-02-28T12:49:30;97083.16;;;15.53;48.28
48386;BME280;34644;47.964;7.982;2023-02-28T12:56:46;97072.44;;;15.43;48.78
48386;BME280;34644;47.964;7.982;2023-02-28T13:03:54;97068.41;;;15.40;48.96
48386;BME280;34644;47.964;7.982;2023-02-28T13:11:00;97057.03;;;15.45;48.93
48386;BME280;34644;47.964;7.982;2023-02-28T13:18:00;97066.81;;;15.34;49.07
48386;BME280;34644;47.964;7.982;2023-02-28T13:25:01;97059.00;;;15.27;49.29
48386;BME280;34644;47.964;7.982;2023-02-28T13:46:27;97059.47;;;15.19;49.47
48386;BME280;34644;47.964;7.982;2023-02-28T13:53:34;97061.38;;;15.24;49.45
48386;BME280;34644;47.964;7.982;2023-02-28T14:08:20;97069.88;;;15.26;49.48
48386;BME280;34644;47.964;7.982;2023-02-28T14:29:39;97095.97;;;15.61;49.04
48386;BME280;34644;47.964;7.982;2023-02-28T14:36:43;97090.47;;;15.73;49.16
48386;BME280;34644;47.964;7.982;2023-02-28T14:43:49;97096.53;;;15.68;49.62
48386;BME280;34644;47.964;7.982;2023-02-28T14:50:51;97088.81;;;15.67;49.77
48386;BME280;34644;47.964;7.982;2023-02-28T14:57:52;97102.84;;;15.57;49.77
48386;BME280;34644;47.964;7.982;2023-02-28T15:05:00;97098.84;;;15.54;49.95
48386;BME280;34644;47.964;7.982;2023-02-28T15:12:01;97101.50;;;15.54;49.82
48386;BME280;34644;47.964;7.982;2023-02-28T15:19:23;97097.38;;;15.42;49.86
48386;BME280;34644;47.964;7.982;2023-02-28T15:26:22;97107.13;;;15.31;50.05
48386;BME280;34644;47.964;7.982;2023-02-28T15:33:27;97107.63;;;15.28;50.32
48386;BME280;34644;47.964;7.982;2023-02-28T15:40:29;97104.41;;;15.26;50.25
48386;BME280;34644;47.964;7.982;2023-02-28T15:47:30;97110.22;;;15.23;50.54
48386;BME280;34644;47.964;7.982;2023-02-28T15:54:34;97109.44;;;15.22;50.65
48386;BME280;34644;47.964;7.982;2023-02-28T16:01:35;97106.53;;;15.24;50.64
48386;BME280;34644;47.964;7.982;2023-02-28T16:08:36;97107.56;;;15.23;50.58
48386;BME280;34644;47.964;7.982;2023-02-28T16:15:37;97116.03;;;15.19;50.81
48386;BME280;34644;47.964;7.982;2023-02-28T16:22:42;97115.94;;;15.09;51.03
48386;BME280;34644;47.964;7.982;2023-02-28T16:29:43;97117.97;;;15.02;51.66
48386;BME280;34644;47.964;7.982;2023-02-28T16:36:48;97119.09;;;15.06;53.45
48386;BME280;34644;47.964;7.982;2023-02-28T16:43:49;97125.72;;;15.31;55.02
48386;BME280;34644;47.964;7.982;2023-02-28T16:50:50;97126.44;;;15.53;54.50
48386;BME280;34644;47.964;7.982;2023-02-28T16:57:55;97129.34;;;15.79;54.81
48386;BME280;34644;47.964;7.982;2023-02-28T17:04:55;97129.34;;;15.79;54.70
48386;BME280;34644;47.964;7.982;2023-02-28T17:11:55;97145.00;;;12.66;39.69
48386;BME280;34644;47.964;7.982;2023-02-28T17:18:57;97150.31;;;14.16;46.64
48386;BME280;34644;47.964;7.982;2023-02-28T17:25:58;97163.50;;;14.89;48.38
48386;BME280;34644;47.964;7.982;2023-02-28T17:32:58;97166.81;;;15.01;49.56
48386;BME280;34644;47.964;7.982;2023-02-28T17:39:59;97179.03;;;15.02;50.88
48386;BME280;34644;47.964;7.982;2023-02-28T17:46:59;97185.84;;;14.93;51.58
48386;BME280;34644;47.964;7.982;2023-02-28T17:53:59;97182.00;;;14.83;53.22
48386;BME280;34644;47.964;7.982;2023-02-28T18:01:00;97191.75;;;11.71;40.76
48386;BME280;34644;47.964;7.982;2023-02-28T18:08:00;97193.84;;;10.28;40.79
48386;BME280;34644;47.964;7.982;2023-02-28T18:15:00;97192.34;;;9.56;41.08
48386;BME280;34644;47.964;7.982;2023-02-28T18:22:01;97189.22;;;11.04;40.79
48386;BME280;34644;47.964;7.982;2023-02-28T18:29:01;97182.81;;;12.91;42.88
48386;BME280;34644;47.964;7.982;2023-02-28T18:36:02;97187.16;;;14.17;44.34
48386;BME280;34644;47.964;7.982;2023-02-28T18:43:02;97185.19;;;14.63;45.54
48386;BME280;34644;47.964;7.982;2023-02-28T18:50:03;97185.31;;;14.96;46.58
48386;BME280;34644;47.964;7.982;2023-02-28T18:57:05;97179.16;;;15.12;47.51
48386;BME280;34644;47.964;7.982;2023-02-28T19:04:05;97169.66;;;15.16;48.50
48386;BME280;34644;47.964;7.982;2023-02-28T19:11:09;97175.50;;;15.18;49.41
48386;BME280;34644;47.964;7.982;2023-02-28T19:18:10;97178.13;;;15.13;50.06
48386;BME280;34644;47.964;7.982;2023-02-28T19:25:10;97176.50;;;15.12;50.76
48386;BME280;34644;47.964;7.982;2023-02-28T19:32:10;97182.25;;;15.04;51.96
48386;BME280;34644;47.964;7.982;2023-02-28T19:39:10;97175.53;;;14.96;52.75
48386;BME280;34644;47.964;7.982;2023-02-28T19:46:11;97179.34;;;14.83;53.14
48386;BME280;34644;47.964;7.982;2023-02-28T19:53:12;97160.56;;;13.03;42.57
48386;BME280;34644;47.964;7.982;2023-02-28T20:00:13;97161.84;;;10.06;41.02
48386;BME280;34644;47.964;7.982;2023-02-28T20:07:16;97150.97;;;10.95;41.35
48386;BME280;34644;47.964;7.982;2023-02-28T20:14:16;97150.91;;;12.69;42.77
48386;BME280;34644;47.964;7.982;2023-02-28T20:21:17;97152.38;;;13.46;44.41
48386;BME280;34644;47.964;7.982;2023-02-28T20:28:18;97153.56;;;14.40;45.67
48386;BME280;34644;47.964;7.982;2023-02-28T20:35:18;97157.56;;;14.81;46.37
48386;BME280;34644;47.964;7.982;2023-02-28T20:42:19;97149.38;;;12.73;42.17
48386;BME280;34644;47.964;7.982;2023-02-28T20:49:19;97151.41;;;14.59;43.26
48386;BME280;34644;47.964;7.982;2023-02-28T20:56:20;97150.09;;;14.78;44.56
48386;BME280;34644;47.964;7.982;2023-02-28T21:03:21;97151.16;;;14.77;46.51
48386;BME280;34644;47.964;7.982;2023-02-28T21:10:21;97140.53;;;14.77;47.61
48386;BME280;34644;47.964;7.982;2023-02-28T21:17:22;97134.94;;;14.74;48.61
48386;BME280;34644;47.964;7.982;2023-02-28T21:24:22;97131.47;;;14.56;49.07
48386;BME280;34644;47.964;7.982;2023-02-28T21:31:23;97126.53;;;14.43;49.75
48386;BME280;34644;47.964;7.982;2023-02-28T21:38:24;97121.19;;;14.38;50.86
48386;BME280;34644;47.964;7.982;2023-02-28T21:45:24;97131.09;;;14.25;49.63
48386;BME280;34644;47.964;7.982;2023-02-28T21:52:26;97122.19;;;14.15;49.93
48386;BME280;34644;47.964;7.982;2023-02-28T21:59:26;97108.88;;;14.09;50.21
48386;BME280;34644;47.964;7.982;2023-02-28T22:06:29;97113.03;;;14.05;50.98
48386;BME280;34644;47.964;7.982;2023-02-28T22:13:30;97109.84;;;14.03;51.12
48386;BME280;34644;47.964;7.982;2023-02-28T22:20:30;97117.53;;;14.05;52.29
48386;BME280;34644;47.964;7.982;2023-02-28T22:27:30;97125.19;;;14.01;52.52
48386;BME280;34644;47.964;7.982;2023-02-28T22:34:32;97121.72;;;14.01;53.09
48386;BME280;34644;47.964;7.982;2023-02-28T22:41:33;97115.06;;;13.98;53.29
48386;BME280;34644;47.964;7.982;2023-02-28T22:48:33;97108.94;;;13.98;54.35
48386;BME280;34644;47.964;7.982;2023-02-28T22:55:34;97108.94;;;13.98;53.64
48386;BME280;34644;47.964;7.982;2023-02-28T23:02:35;97114.25;;;13.98;53.78
48386;BME280;34644;47.964;7.982;2023-02-28T23:09:35;97103.63;;;13.98;54.47
48386;BME280;34644;47.964;7.982;2023-02-28T23:16:37;97104.47;;;13.98;54.47
48386;BME280;34644;47.964;7.982;2023-02-28T23:23:38;97103.41;;;13.99;54.81
48386;BME280;34644;47.964;7.982;2023-02-28T23:30:39;97100.50;;;14.01;55.11
48386;BME280;34644;47.964;7.982;2023-02-28T23:37:39;97099.72;;;14.00;55.45
48386;BME280;34644;47.964;7.982;2023-02-28T23:44:39;97105.00;;;14.00;55.39
48386;BME280;34644;47.964;7.982;2023-02-28T23:51:40;97097.84;;;14.01;55.56
48386;BME280;34644;47.964;7.982;2023-02-28T23:58:41;97089.13;;;14.00;55.94
